createdAt,value
2023-04-20T00:03:09.353Z,96.47
2023-04-20T00:07:41.777Z,96.14
2023-04-20T00:12:07.122Z,96.22
2023-04-20T00:16:34.866Z,96.11
2023-04-20T00:21:06.755Z,96.10
2023-04-20T00:25:34.765Z,95.89
2023-04-20T00:29:58.760Z,95.93
2023-04-20T00:34:34.956Z,95.85
2023-04-20T00:38:59.061Z,96.13
2023-04-20T00:43:28.551Z,96.41
2023-04-20T00:47:48.844Z,96.38
2023-04-20T00:52:12.456Z,96.18
2023-04-20T00:56:16.676Z,96.30
2023-04-20T01:01:00.589Z,96.40
2023-04-20T01:05:44.635Z,96.14
2023-04-20T01:10:08.578Z,95.97
2023-04-20T01:14:36.387Z,96.33
2023-04-20T01:19:01.903Z,96.33
2023-04-20T01:23:32.770Z,96.29
2023-04-20T01:28:18.185Z,96.32
2023-04-20T01:32:31.892Z,96.16
2023-04-20T01:36:20.786Z,96.28
2023-04-20T01:40:45.320Z,96.21
2023-04-20T01:45:29.092Z,96.23
2023-04-20T01:49:32.878Z,96.24
2023-04-20T01:54:12.777Z,96.29
2023-04-20T01:58:57.001Z,96.12
2023-04-20T02:03:41.048Z,96.26
2023-04-20T02:07:44.061Z,96.22
2023-04-20T02:12:10.113Z,96.39
2023-04-20T02:16:49.934Z,96.43
2023-04-20T02:21:13.956Z,96.16
2023-04-20T02:25:18.461Z,96.24
2023-04-20T02:29:45.884Z,96.01
2023-04-20T02:34:15.645Z,95.71
2023-04-20T02:38:33.807Z,95.80
2023-04-20T02:42:39.528Z,95.90
2023-04-20T02:47:23.825Z,95.89
2023-04-20T02:52:08.420Z,95.99
2023-04-20T02:56:48.747Z,96.00
2023-04-20T03:01:13.526Z,95.95
2023-04-20T03:05:57.841Z,95.88
2023-04-20T03:09:43.863Z,95.98
2023-04-20T03:13:49.907Z,95.72
2023-04-20T03:17:57.468Z,95.79
2023-04-20T03:22:21.933Z,95.78
2023-04-20T03:27:06.514Z,95.82
2023-04-20T03:31:50.844Z,95.80
2023-04-20T03:36:11.865Z,95.76
2023-04-20T03:43:18.346Z,95.28
2023-04-20T03:47:42.088Z,95.33
2023-04-20T03:52:13.942Z,95.13
2023-04-20T03:56:34.696Z,95.13
2023-04-20T04:01:09.927Z,95.02
2023-04-20T04:05:54.825Z,95.10
2023-04-20T04:10:28.448Z,95.28
2023-04-20T04:14:53.190Z,95.33
2023-04-20T04:19:19.358Z,95.26
2023-04-20T04:23:51.454Z,95.42
2023-04-20T04:28:22.957Z,95.28
2023-04-20T04:33:08.715Z,95.11
2023-04-20T04:37:53.320Z,94.62
2023-04-20T04:42:36.847Z,94.18
2023-04-20T04:47:03.009Z,94.07
2023-04-20T04:51:16.047Z,93.66
2023-04-20T04:55:37.651Z,93.54
2023-04-20T05:00:21.887Z,93.44
2023-04-20T05:04:46.322Z,93.11
2023-04-20T05:09:42.834Z,93.21
2023-04-20T05:14:03.568Z,93.16
2023-04-20T05:18:11.070Z,93.31
2023-04-20T05:22:37.281Z,93.17
2023-04-20T05:27:21.870Z,93.15
2023-04-20T05:31:41.210Z,93.17
2023-04-20T05:36:25.989Z,93.29
2023-04-20T05:40:50.620Z,93.36
2023-04-20T05:44:53.215Z,93.02
2023-04-20T05:53:56.296Z,92.89
2023-04-20T05:58:20.518Z,92.39
2023-04-20T06:02:45.097Z,92.15
2023-04-20T06:06:51.944Z,92.00
2023-04-20T06:11:35.803Z,91.74
2023-04-20T06:16:04.110Z,91.60
2023-04-20T06:20:27.653Z,91.29
2023-04-20T06:24:45.054Z,91.12
2023-04-20T06:28:59.473Z,90.56
2023-04-20T06:33:27.507Z,90.27
2023-04-20T06:38:11.978Z,89.58
2023-04-20T06:42:28.643Z,88.12
2023-04-20T06:47:12.203Z,87.84
2023-04-20T06:51:36.821Z,86.65
2023-04-20T06:55:13.664Z,86.59
2023-04-20T06:59:30.071Z,84.70
2023-04-20T07:03:47.132Z,84.88
2023-04-20T07:08:14.631Z,83.84
2023-04-20T07:12:02.449Z,83.42
2023-04-20T07:16:19.248Z,82.23
2023-04-20T07:20:27.416Z,83.07
2023-04-20T07:24:31.734Z,80.67
2023-04-20T07:28:15.055Z,78.91
2023-04-20T07:32:38.921Z,78.69
2023-04-20T07:36:16.876Z,77.92
2023-04-20T07:40:14.077Z,73.60
2023-04-20T07:44:02.834Z,73.90
2023-04-20T07:47:57.794Z,75.21
2023-04-20T07:51:26.568Z,76.14
2023-04-20T07:54:58.713Z,74.50
2023-04-20T07:58:51.317Z,74.81
2023-04-20T08:02:24.790Z,73.39
2023-04-20T08:05:57.758Z,72.42
2023-04-20T08:09:29.880Z,72.69
2023-04-20T08:13:06.332Z,71.33
2023-04-20T08:17:17.031Z,70.52
2023-04-20T08:20:38.005Z,69.80
2023-04-20T08:24:44.124Z,69.19
2023-04-20T08:27:57.870Z,68.80
2023-04-20T08:31:42.379Z,68.48
2023-04-20T08:35:27.016Z,68.67
2023-04-20T08:38:55.998Z,67.55
2023-04-20T08:42:23.466Z,67.01
2023-04-20T08:46:02.089Z,67.58
2023-04-20T08:49:56.544Z,67.77
2023-04-20T08:53:10.987Z,66.21
2023-04-20T08:56:57.918Z,65.88
2023-04-20T09:00:43.936Z,64.36
2023-04-20T09:14:08.278Z,64.64
2023-04-20T09:17:57.173Z,64.60
2023-04-20T09:21:13.979Z,65.15
2023-04-20T09:24:35.003Z,63.70
2023-04-20T09:28:01.464Z,64.12
2023-04-20T09:31:22.330Z,64.99
2023-04-20T09:35:02.193Z,65.38
2023-04-20T09:38:38.317Z,66.26
2023-04-20T09:42:02.736Z,66.00
2023-04-20T09:45:20.989Z,64.26
2023-04-20T09:49:02.374Z,63.76
2023-04-20T09:52:24.102Z,62.85
2023-04-20T09:55:41.125Z,61.71
2023-04-20T09:58:52.742Z,61.96
2023-04-20T10:02:14.911Z,62.15
2023-04-20T10:05:58.240Z,61.54
2023-04-20T10:09:26.310Z,61.29
2023-04-20T10:13:08.740Z,62.51
2023-04-20T10:16:22.232Z,61.53
2023-04-20T10:19:49.103Z,61.63
2023-04-20T10:23:20.854Z,60.79
2023-04-20T10:27:20.579Z,60.64
2023-04-20T10:30:53.749Z,60.48
2023-04-20T10:34:07.103Z,59.64
2023-04-20T10:37:58.168Z,60.21
2023-04-20T10:41:20.557Z,59.45
2023-04-20T10:44:36.974Z,60.24
2023-04-20T10:48:10.774Z,59.50
2023-04-20T10:51:28.824Z,59.17
2023-04-20T10:54:53.291Z,58.66
2023-04-20T10:58:26.318Z,58.63
2023-04-20T11:01:36.913Z,56.79
2023-04-20T11:05:03.959Z,57.42
2023-04-20T11:09:00.266Z,57.81
2023-04-20T11:12:38.765Z,57.43
2023-04-20T11:16:11.130Z,56.19
2023-04-20T11:19:26.044Z,56.87
2023-04-20T11:22:58.260Z,57.91
2023-04-20T11:26:12.422Z,57.85
2023-04-20T11:29:34.312Z,57.09
2023-04-20T11:32:56.005Z,56.70
2023-04-20T11:36:39.887Z,56.22
2023-04-20T11:40:05.430Z,56.12
2023-04-20T11:43:25.251Z,56.58
2023-04-20T11:46:51.199Z,56.65
2023-04-20T11:50:16.369Z,57.09
2023-04-20T11:53:38.561Z,56.08
2023-04-20T11:56:54.803Z,54.85
2023-04-20T12:00:15.145Z,55.24
2023-04-20T12:03:38.756Z,54.72
2023-04-20T12:06:50.960Z,54.47
2023-04-20T12:10:16.023Z,54.06
2023-04-20T12:13:51.551Z,52.93
2023-04-20T12:17:15.128Z,52.89
2023-04-20T12:20:36.978Z,54.50
2023-04-20T12:24:15.570Z,54.01
2023-04-20T12:27:38.384Z,53.18
2023-04-20T12:31:00.610Z,53.38
2023-04-20T12:34:16.000Z,52.97
2023-04-20T12:37:21.943Z,52.09
2023-04-20T12:40:58.514Z,51.78
2023-04-20T12:44:28.049Z,50.48
2023-04-20T12:47:56.242Z,49.61
2023-04-20T12:51:39.464Z,49.55
2023-04-20T12:55:17.819Z,50.11
2023-04-20T12:58:41.566Z,50.57
2023-04-20T13:02:04.191Z,50.51
2023-04-20T13:05:34.937Z,49.39
2023-04-20T13:08:59.193Z,49.61
2023-04-20T13:12:22.633Z,50.24
2023-04-20T13:15:38.718Z,50.63
2023-04-20T13:19:04.710Z,51.43
2023-04-20T13:22:27.632Z,50.68
2023-04-20T13:26:02.566Z,51.35
2023-04-20T13:29:27.444Z,51.69
2023-04-20T13:32:35.478Z,51.64
2023-04-20T13:36:04.595Z,49.48
2023-04-20T13:39:16.609Z,49.04
2023-04-20T13:42:35.058Z,49.95
2023-04-20T13:45:58.871Z,49.86
2023-04-20T13:49:13.575Z,50.58
2023-04-20T13:52:38.834Z,51.17
2023-04-20T13:56:05.773Z,51.52
2023-04-20T13:59:32.266Z,52.26
2023-04-20T14:02:52.577Z,52.29
2023-04-20T14:06:22.160Z,52.19
2023-04-20T14:10:10.153Z,51.78
2023-04-20T14:13:34.961Z,51.27
2023-04-20T14:16:57.930Z,51.58
2023-04-20T14:20:34.246Z,52.15
2023-04-20T14:23:56.073Z,52.13
2023-04-20T14:27:06.028Z,52.32
2023-04-20T14:30:44.032Z,51.62
2023-04-20T14:34:00.126Z,50.26
2023-04-20T14:37:21.852Z,50.07
2023-04-20T14:40:35.800Z,51.24
2023-04-20T14:44:01.726Z,51.77
2023-04-20T14:47:32.384Z,51.68
2023-04-20T14:51:09.453Z,51.73
2023-04-20T14:54:32.706Z,51.14
2023-04-20T14:58:38.873Z,51.35
2023-04-20T15:02:06.058Z,51.08
2023-04-20T15:05:49.963Z,51.43
2023-04-20T15:09:34.962Z,50.81
2023-04-20T15:12:52.792Z,49.23
2023-04-20T15:16:12.578Z,49.78
2023-04-20T15:19:34.887Z,50.31
2023-04-20T15:23:25.827Z,50.87
2023-04-20T15:26:51.212Z,51.24
2023-04-20T15:30:22.942Z,51.78
2023-04-20T15:33:36.010Z,51.12
2023-04-20T15:37:16.781Z,50.44
2023-04-20T15:48:22.495Z,51.16
2023-04-20T15:51:38.775Z,52.05
2023-04-20T15:55:05.623Z,52.11
2023-04-20T15:58:33.413Z,52.05
2023-04-20T16:01:57.550Z,52.58
2023-04-20T16:05:27.441Z,52.66
2023-04-20T16:08:43.773Z,52.81
2023-04-20T16:12:03.608Z,52.67
2023-04-20T16:15:36.152Z,52.47
2023-04-20T16:19:04.994Z,52.59
2023-04-20T16:22:30.257Z,52.97
2023-04-20T16:25:47.528Z,53.38
2023-04-20T16:29:13.139Z,53.86
2023-04-20T16:32:19.249Z,53.76
2023-04-20T16:35:41.787Z,53.75
2023-04-20T16:39:11.416Z,53.40
2023-04-20T16:43:39.682Z,53.23
2023-04-20T16:47:34.305Z,53.66
2023-04-20T16:50:44.790Z,54.42
2023-04-20T16:54:33.414Z,54.60
2023-04-20T16:58:02.450Z,54.67
2023-04-20T17:02:07.186Z,55.39
2023-04-20T17:05:25.956Z,55.75
2023-04-20T17:09:12.668Z,56.20
2023-04-20T17:13:04.731Z,56.76
2023-04-20T17:17:16.291Z,57.26
2023-04-20T17:21:40.697Z,57.77
2023-04-20T17:26:05.479Z,58.18
2023-04-20T17:30:38.842Z,58.34
2023-04-20T17:34:26.115Z,59.01
2023-04-20T17:38:50.307Z,59.31
2023-04-20T17:42:50.036Z,60.03
2023-04-20T17:46:52.495Z,60.76
2023-04-20T17:50:36.689Z,61.22
2023-04-20T17:54:16.736Z,61.70
2023-04-20T17:58:40.495Z,61.96
2023-04-20T18:02:30.044Z,62.51
2023-04-20T18:06:32.814Z,63.09
2023-04-20T18:10:44.982Z,63.46
2023-04-20T18:14:25.110Z,63.53
2023-04-20T18:18:27.631Z,63.94
2023-04-20T18:22:20.325Z,64.51
2023-04-20T18:26:25.267Z,64.96
2023-04-20T18:30:36.801Z,65.61
2023-04-20T18:34:56.026Z,65.52
2023-04-20T18:39:27.743Z,65.82
2023-04-20T18:43:49.733Z,66.33
2023-04-20T18:47:55.501Z,66.74
2023-04-20T18:52:18.253Z,67.14
2023-04-20T18:56:42.360Z,67.05
2023-04-20T19:01:06.715Z,67.53
2023-04-20T19:05:26.543Z,67.87
2023-04-20T19:09:47.712Z,68.04
2023-04-20T19:13:52.566Z,68.38
2023-04-20T19:18:26.214Z,68.17
2023-04-20T19:22:41.205Z,68.32
2023-04-20T19:26:52.647Z,68.56
2023-04-20T19:31:00.968Z,68.95
2023-04-20T19:35:28.820Z,69.16
2023-04-20T19:39:01.607Z,69.39
2023-04-20T19:43:06.030Z,69.49
2023-04-20T19:47:45.757Z,69.70
2023-04-20T19:52:11.369Z,70.24
2023-04-20T19:56:23.261Z,70.34
2023-04-20T20:00:46.349Z,70.86
2023-04-20T20:04:43.214Z,71.57
2023-04-20T20:08:49.932Z,72.62
2023-04-20T20:13:04.643Z,72.08
2023-04-20T20:17:28.991Z,72.23
2023-04-20T20:21:53.446Z,72.18
2023-04-20T20:26:14.052Z,72.12
2023-04-20T20:30:46.092Z,71.83
2023-04-20T20:35:36.588Z,72.34
2023-04-20T20:39:09.793Z,72.41
2023-04-20T20:43:15.706Z,73.03
2023-04-20T20:47:34.322Z,73.19
2023-04-20T20:51:38.087Z,73.52
2023-04-20T20:56:03.139Z,73.44
2023-04-20T21:00:09.548Z,73.77
2023-04-20T21:04:09.014Z,75.83
2023-04-20T21:08:24.688Z,74.65
2023-04-20T21:12:55.506Z,74.58
2023-04-20T21:17:23.274Z,75.17
2023-04-20T21:22:07.412Z,74.73
2023-04-20T21:26:46.425Z,75.53
2023-04-20T21:31:24.058Z,75.06
2023-04-20T21:35:49.078Z,76.03
2023-04-20T21:40:33.376Z,75.89
2023-04-20T21:44:39.795Z,76.87
2023-04-20T21:49:20.173Z,76.77
2023-04-20T21:53:44.005Z,76.79
2023-04-20T21:58:12.052Z,77.12
2023-04-20T22:02:56.570Z,77.80
2023-04-20T22:07:22.247Z,77.48
2023-04-20T22:12:02.047Z,77.29
2023-04-20T22:16:30.298Z,76.83
2023-04-20T22:21:15.486Z,77.49
2023-04-20T22:25:43.297Z,78.76
2023-04-20T22:30:27.464Z,78.86
2023-04-20T22:35:11.731Z,78.28
2023-04-20T22:39:24.918Z,78.53
2023-04-20T22:43:49.512Z,78.79
2023-04-20T22:48:22.219Z,79.31
2023-04-20T22:52:54.306Z,78.72
2023-04-20T22:57:33.814Z,79.87
2023-04-20T23:02:18.409Z,80.26
2023-04-20T23:06:38.905Z,80.43
2023-04-20T23:11:23.422Z,80.36
2023-04-20T23:15:27.790Z,80.92
2023-04-20T23:19:42.958Z,81.01
2023-04-20T23:24:23.618Z,80.66
2023-04-20T23:28:48.282Z,81.49
2023-04-20T23:33:12.527Z,81.76
2023-04-20T23:37:44.467Z,81.39
2023-04-20T23:42:24.192Z,81.37
2023-04-20T23:46:51.004Z,81.87
2023-04-20T23:51:15.095Z,82.12
2023-04-20T23:55:39.194Z,82.66
